Time;durP1;ratioP1;P1;durP2;ratioP2;P2;SDS_P1;SDS_P2;PMS_P1;PMS_P2;Temp;Humidity;BMP_temperature;BMP_pressure;BME280_temperature;BME280_humidity;BME280_pressure;Samples;Min_cycle;Max_cycle;Signal;HPM_P1;HPM_P2
2023/12/04 00:01:47;;;;;;;0.90;0.60;;;;;;;-143.84;95.69;45195.69;5092564;28;20430;-61
2023/12/04 00:04:14;;;;;;;0.90;0.80;;;;;;;-143.84;95.64;45210.94;5092938;28;20517;-61
2023/12/04 00:06:42;;;;;;;1.00;0.83;;;;;;;-143.84;96.01;45220.44;5092698;28;20923;-61
2023/12/04 00:09:10;;;;;;;0.80;0.60;;;;;;;-143.84;95.93;45216.63;5092583;28;20934;-61
2023/12/04 00:11:38;;;;;;;0.80;0.53;;;;;;;-143.84;96.11;45250.91;5092915;28;20822;-61
2023/12/04 00:14:05;;;;;;;1.07;0.97;;;;;;;-143.84;96.19;45231.88;5092287;28;20453;-61
2023/12/04 00:16:35;;;;;;;1.00;0.87;;;;;;;-143.84;96.09;45229.97;5092184;28;20477;-61
2023/12/04 00:19:02;;;;;;;1.10;0.70;;;;;;;-143.84;96.19;45203.31;5092288;28;20465;-61
2023/12/04 00:21:29;;;;;;;1.23;1.13;;;;;;;-143.84;95.84;45205.22;5092378;28;20446;-61
2023/12/04 00:23:56;;;;;;;1.60;1.10;;;;;;;-143.84;95.94;45214.72;5092041;28;20486;-61
2023/12/04 00:26:23;;;;;;;1.20;0.97;;;;;;;-143.84;96.79;45191.88;5092264;28;20451;-61
2023/12/04 00:28:52;;;;;;;4.50;2.10;;;;;;;-143.84;96.71;45228.06;5091953;28;20441;-61
2023/12/04 00:31:19;;;;;;;1.30;1.03;;;;;;;-143.84;96.71;45224.25;5092037;28;20824;-61
2023/12/04 00:33:47;;;;;;;1.10;0.87;;;;;;;-143.84;96.41;45191.88;5092057;28;20528;-61
2023/12/04 00:36:15;;;;;;;1.20;1.10;;;;;;;-143.84;96.80;45205.22;5092316;28;20549;-61
2023/12/04 00:38:42;;;;;;;1.37;1.10;;;;;;;-143.84;96.61;45229.97;5092331;28;20438;-61
2023/12/04 00:41:09;;;;;;;1.23;1.13;;;;;;;-143.84;96.50;45241.41;5092075;28;20438;-61
2023/12/04 00:43:36;;;;;;;0.80;0.70;;;;;;;-143.84;96.71;45212.84;5092195;28;20588;-61
2023/12/04 00:46:05;;;;;;;0.97;0.87;;;;;;;-143.84;97.38;45191.88;5091815;28;20431;-61
2023/12/04 00:48:32;;;;;;;0.80;0.50;;;;;;;-143.84;97.04;45220.44;5091880;28;20861;-61
2023/12/04 00:50:59;;;;;;;14.63;1.50;;;;;;;-143.84;96.32;45216.63;5091812;28;21021;-61
2023/12/04 00:53:26;;;;;;;1.00;0.90;;;;;;;-143.84;96.75;45207.13;5091954;28;20872;-61
2023/12/04 00:55:53;;;;;;;0.80;0.50;;;;;;;-143.84;96.55;45224.25;5091772;28;20500;-61
2023/12/04 00:58:21;;;;;;;0.80;0.60;;;;;;;-143.84;96.93;45218.53;5091577;28;20441;-61
2023/12/04 01:00:51;;;;;;;1.87;1.77;;;;;;;-143.84;96.44;45218.53;5091710;28;20445;-61
2023/12/04 01:03:20;;;;;;;0.80;0.50;;;;;;;-143.84;97.14;45218.53;5091381;28;20483;-61
2023/12/04 01:05:47;;;;;;;0.80;0.60;;;;;;;-143.84;96.56;45233.78;5091327;28;20499;-61
2023/12/04 01:08:14;;;;;;;0.80;0.60;;;;;;;-143.84;97.06;45207.13;5091651;28;20448;-61
2023/12/04 01:10:41;;;;;;;0.80;0.50;;;;;;;-143.84;97.21;45224.25;5091387;28;20446;-61
2023/12/04 01:13:08;;;;;;;1.73;1.00;;;;;;;-143.84;96.94;45235.69;5091331;28;20830;-61
2023/12/04 01:15:36;;;;;;;2.10;2.00;;;;;;;-143.84;97.34;45220.44;5091266;28;20480;-61
2023/12/04 01:18:03;;;;;;;1.50;1.03;;;;;;;-143.84;98.38;45218.53;5091364;28;20448;-61
2023/12/04 01:20:33;;;;;;;1.30;0.77;;;;;;;-143.84;97.89;45235.69;5091469;28;20516;-61
2023/12/04 01:23:00;;;;;;;1.37;0.70;;;;;;;-143.84;97.86;45209.03;5091103;28;20485;-60
2023/12/04 01:25:27;;;;;;;1.07;0.97;;;;;;;-143.84;98.41;45231.88;5091134;28;20486;-61
2023/12/04 01:27:54;;;;;;;1.33;0.60;;;;;;;-143.84;98.53;45209.03;5090883;28;20445;-60
2023/12/04 01:30:21;;;;;;;1.43;1.23;;;;;;;-143.84;98.43;45224.25;5090934;28;20442;-61
2023/12/04 01:32:48;;;;;;;0.80;0.57;;;;;;;-143.84;97.91;45209.03;5091365;28;20445;-60
2023/12/04 01:35:15;;;;;;;0.80;0.50;;;;;;;-143.84;98.24;45228.06;5090850;28;20433;-61
2023/12/04 01:37:44;;;;;;;0.80;0.60;;;;;;;-143.84;97.69;45201.41;5090805;28;20514;-61
2023/12/04 01:40:12;;;;;;;0.80;0.63;;;;;;;-143.84;97.58;45212.84;5090904;28;20438;-61
2023/12/04 01:42:39;;;;;;;0.80;0.60;;;;;;;-143.84;97.67;45229.97;5090573;28;20481;-61
2023/12/04 01:45:08;;;;;;;0.90;0.80;;;;;;;-143.84;97.04;45212.84;5090797;28;20492;-61
2023/12/04 01:47:35;;;;;;;1.37;1.27;;;;;;;-143.84;96.96;45222.34;5090588;28;20543;-61
2023/12/04 01:50:04;;;;;;;2.30;1.17;;;;;;;-143.84;96.45;45216.63;5090693;28;20451;-61
2023/12/04 01:52:31;;;;;;;2.60;0.87;;;;;;;-143.84;96.33;45228.06;5090534;28;20573;-61
2023/12/04 01:55:00;;;;;;;0.80;0.67;;;;;;;-143.84;95.97;45228.06;5090496;28;20431;-61
2023/12/04 01:57:27;;;;;;;0.87;0.70;;;;;;;-143.84;95.80;45203.31;5090994;28;21011;-61
2023/12/04 01:59:54;;;;;;;1.77;0.60;;;;;;;-143.84;95.28;45197.59;5090600;28;20681;-61
2023/12/04 02:02:22;;;;;;;3.90;1.80;;;;;;;-143.84;94.97;45231.88;5090604;28;20978;-61
2023/12/04 02:04:49;;;;;;;0.80;0.60;;;;;;;-143.84;94.50;45216.63;5090573;28;20446;-61
2023/12/04 02:07:16;;;;;;;0.80;0.50;;;;;;;-143.84;94.17;45226.16;5090547;28;20446;-61
2023/12/04 02:09:43;;;;;;;0.80;0.60;;;;;;;-143.84;93.45;45216.63;5090047;28;20503;-61
2023/12/04 02:12:12;;;;;;;0.80;0.60;;;;;;;-143.84;93.04;45233.78;5090387;28;20952;-61
2023/12/04 02:14:39;;;;;;;3.87;2.83;;;;;;;-143.84;93.28;45210.94;5089943;28;20976;-61
2023/12/04 02:17:07;;;;;;;0.80;0.47;;;;;;;-143.84;94.35;45224.25;5089868;28;20534;-61
2023/12/04 02:19:35;;;;;;;0.80;0.70;;;;;;;-143.84;94.68;45207.13;5090141;28;20545;-61
2023/12/04 02:22:02;;;;;;;0.80;0.53;;;;;;;-143.84;94.73;45235.69;5089658;28;20955;-61
2023/12/04 02:24:34;;;;;;;0.80;0.60;;;;;;;-143.84;95.56;45205.22;5089870;28;20473;-61
2023/12/04 02:27:11;;;;;;;2.10;1.57;;;;;;;-143.84;95.96;45243.31;5089934;28;20458;-61
2023/12/04 02:29:45;;;;;;;0.80;0.50;;;;;;;-143.84;96.00;45228.06;5089936;28;20549;-61
2023/12/04 02:32:17;;;;;;;0.83;0.63;;;;;;;-143.84;95.93;45258.53;5090027;28;20805;-61
2023/12/04 02:34:46;;;;;;;4.20;2.47;;;;;;;-143.84;96.48;45245.19;5089831;28;20999;-62
2023/12/04 02:37:14;;;;;;;0.80;0.50;;;;;;;-143.84;96.26;45226.16;5090099;28;20442;-62
2023/12/04 02:39:43;;;;;;;0.80;0.60;;;;;;;-143.84;96.56;45239.50;5089447;28;20503;-62
2023/12/04 02:42:13;;;;;;;1.33;1.23;;;;;;;-143.84;96.41;45224.25;5089485;28;20533;-62
2023/12/04 02:44:40;;;;;;;0.80;0.60;;;;;;;-143.84;96.38;45191.88;5089586;28;21000;-62
2023/12/04 02:47:07;;;;;;;0.80;0.80;;;;;;;-143.84;96.56;45241.41;5089574;28;20500;-62
2023/12/04 02:49:34;;;;;;;0.80;0.60;;;;;;;-143.84;97.11;45231.88;5089594;28;20442;-62
2023/12/04 02:52:02;;;;;;;1.20;1.10;;;;;;;-143.84;97.33;45243.31;5089528;28;20497;-62
2023/12/04 02:54:29;;;;;;;0.80;0.50;;;;;;;-143.84;97.45;45237.59;5089569;28;20499;-62
2023/12/04 02:56:58;;;;;;;1.63;1.27;;;;;;;-143.84;96.97;45258.53;5089755;28;21389;-61
2023/12/04 02:59:25;;;;;;;1.10;1.00;;;;;;;-143.84;97.02;45231.88;5089293;28;20441;-62
2023/12/04 03:01:52;;;;;;;0.80;0.50;;;;;;;-143.84;96.75;45212.84;5089223;28;21013;-61
2023/12/04 03:04:20;;;;;;;1.57;1.47;;;;;;;-143.84;96.46;45228.06;5088990;28;20534;-61
2023/12/04 03:06:48;;;;;;;0.90;0.80;;;;;;;-143.84;96.93;45212.84;5088992;28;20437;-61
2023/12/04 03:09:15;;;;;;;0.80;0.50;;;;;;;-143.84;96.65;45214.72;5089036;28;20468;-61
2023/12/04 03:11:42;;;;;;;0.80;0.50;;;;;;;-143.84;96.96;45201.41;5089122;28;20503;-62
2023/12/04 03:14:11;;;;;;;0.80;0.60;;;;;;;-143.84;96.85;45231.88;5089006;28;20433;-62
2023/12/04 03:16:38;;;;;;;0.80;0.63;;;;;;;-143.84;96.71;45231.88;5088761;28;20484;-61
2023/12/04 03:19:05;;;;;;;1.10;0.67;;;;;;;-143.84;96.70;45228.06;5088894;28;20442;-61
2023/12/04 03:21:32;;;;;;;1.10;1.00;;;;;;;-143.84;96.64;45222.34;5088760;28;20445;-61
2023/12/04 03:23:59;;;;;;;0.90;0.77;;;;;;;-143.84;96.44;45249.00;5088783;28;20993;-62
2023/12/04 03:26:26;;;;;;;1.17;1.07;;;;;;;-143.84;97.08;45220.44;5088704;28;20448;-61
2023/12/04 03:28:53;;;;;;;0.97;0.87;;;;;;;-143.84;96.42;45226.16;5088780;28;20449;-62
2023/12/04 03:31:22;;;;;;;2.00;1.37;;;;;;;-143.84;96.87;45220.44;5088841;28;20447;-61
2023/12/04 03:33:49;;;;;;;0.80;0.50;;;;;;;-143.84;97.53;45247.09;5088032;28;20497;-62
2023/12/04 03:36:16;;;;;;;0.80;0.50;;;;;;;-143.84;97.83;45212.84;5088561;28;20506;-62
2023/12/04 03:38:43;;;;;;;0.80;0.70;;;;;;;-143.84;97.33;45220.44;5088835;28;20446;-62
2023/12/04 03:41:15;;;;;;;0.80;0.50;;;;;;;-143.84;97.77;45228.06;5088562;28;20445;-62
2023/12/04 03:43:42;;;;;;;0.80;0.50;;;;;;;-143.84;97.33;45214.72;5088711;28;20536;-62
2023/12/04 03:46:09;;;;;;;0.80;0.50;;;;;;;-143.84;97.33;45237.59;5089030;28;20505;-62
2023/12/04 03:48:38;;;;;;;0.80;0.50;;;;;;;-143.84;97.49;45258.53;5088833;28;20446;-62
2023/12/04 03:51:06;;;;;;;0.80;0.50;;;;;;;-143.84;97.68;45212.84;5088235;28;20501;-62
2023/12/04 03:53:34;;;;;;;0.80;0.70;;;;;;;-143.84;97.89;45209.03;5088525;28;20847;-62
2023/12/04 03:56:01;;;;;;;0.80;0.60;;;;;;;-143.84;98.18;45210.94;5088399;28;20435;-62
2023/12/04 03:58:28;;;;;;;1.00;0.83;;;;;;;-143.84;98.05;45245.19;5088439;28;20444;-62
2023/12/04 04:00:55;;;;;;;2.97;1.67;;;;;;;-143.84;98.32;45249.00;5088383;28;20439;-62
2023/12/04 04:03:22;;;;;;;0.90;0.70;;;;;;;-143.84;97.88;45216.63;5088543;28;20572;-62
2023/12/04 04:05:51;;;;;;;0.80;0.60;;;;;;;-143.84;97.99;45247.09;5088378;28;20437;-62
2023/12/04 04:08:18;;;;;;;0.80;0.50;;;;;;;-143.84;97.96;45254.72;5087698;28;20474;-62
2023/12/04 04:10:45;;;;;;;0.80;0.50;;;;;;;-143.84;97.64;45229.97;5087607;28;20941;-62
2023/12/04 04:13:12;;;;;;;0.80;0.70;;;;;;;-143.84;97.74;45216.63;5087897;28;20444;-62
2023/12/04 04:15:39;;;;;;;0.80;0.50;;;;;;;-143.84;97.50;45245.19;5087882;28;20500;-62
2023/12/04 04:18:07;;;;;;;0.80;0.60;;;;;;;-143.84;97.88;45237.59;5087645;28;20449;-62
2023/12/04 04:20:34;;;;;;;0.80;0.50;;;;;;;-143.84;98.30;45205.22;5087836;28;20434;-62
2023/12/04 04:23:02;;;;;;;0.83;0.83;;;;;;;-143.84;98.29;45233.78;5087902;28;20454;-62
2023/12/04 04:25:29;;;;;;;0.80;0.50;;;;;;;-143.84;97.92;45233.78;5088162;28;20496;-62
2023/12/04 04:27:56;;;;;;;0.80;0.60;;;;;;;-143.84;98.31;45245.19;5088379;28;20439;-62
2023/12/04 04:30:24;;;;;;;0.90;0.80;;;;;;;-143.84;97.53;45237.59;5088554;28;20435;-62
2023/12/04 04:32:51;;;;;;;1.10;1.00;;;;;;;-143.84;97.64;45216.63;5088353;28;20522;-62
2023/12/04 04:35:18;;;;;;;0.80;0.50;;;;;;;-143.84;96.97;45231.88;5088083;28;20441;-61
2023/12/04 04:37:45;;;;;;;0.90;0.80;;;;;;;-143.84;97.21;45237.59;5088646;28;21204;-62
2023/12/04 04:40:14;;;;;;;1.13;1.03;;;;;;;-143.84;97.50;45218.53;5088161;28;20445;-61
2023/12/04 04:42:41;;;;;;;2.03;1.03;;;;;;;-143.84;96.60;45218.53;5088064;28;20862;-61
2023/12/04 04:45:09;;;;;;;0.80;0.60;;;;;;;-143.84;96.66;45220.44;5090327;28;20484;-61
2023/12/04 04:47:36;;;;;;;0.80;0.63;;;;;;;-143.84;96.83;45241.41;5091661;28;21023;-61
2023/12/04 04:50:03;;;;;;;0.80;0.50;;;;;;;-143.84;96.50;45205.22;5091528;28;20449;-61
2023/12/04 04:52:30;;;;;;;0.80;0.50;;;;;;;-143.84;96.38;45210.94;5091757;28;20448;-61
2023/12/04 04:54:57;;;;;;;0.80;0.50;;;;;;;-143.84;96.37;45262.34;5091632;28;20437;-61
2023/12/04 04:57:26;;;;;;;1.40;1.30;;;;;;;-143.84;96.24;45222.34;5091562;28;20445;-61
2023/12/04 04:59:53;;;;;;;3.53;1.23;;;;;;;-143.84;96.30;45220.44;5091590;28;20450;-61
2023/12/04 05:02:20;;;;;;;1.80;1.33;;;;;;;-143.84;96.35;45205.22;5091520;28;20942;-61
2023/12/04 05:04:47;;;;;;;0.80;0.60;;;;;;;-143.84;96.87;45258.53;5091265;28;20848;-61
2023/12/04 05:07:15;;;;;;;0.80;0.50;;;;;;;-143.84;96.25;45209.03;5091328;28;20457;-61
2023/12/04 05:09:42;;;;;;;0.80;0.50;;;;;;;-143.84;96.80;45224.25;5091609;28;20438;-61
2023/12/04 05:12:09;;;;;;;0.80;0.73;;;;;;;-143.84;97.04;45241.41;5091665;28;20842;-61
2023/12/04 05:14:38;;;;;;;0.80;0.50;;;;;;;-143.84;97.15;45273.78;5090874;28;20455;-61
2023/12/04 05:17:05;;;;;;;1.17;1.07;;;;;;;-143.84;96.78;45235.69;5093515;28;20480;-61
2023/12/04 05:19:32;;;;;;;5.33;1.37;;;;;;;-143.84;97.15;45218.53;5100765;28;20931;-61
2023/12/04 05:21:59;;;;;;;0.80;0.50;;;;;;;-143.84;97.21;45222.34;5102178;28;20452;-61
2023/12/04 05:24:26;;;;;;;0.80;0.60;;;;;;;-143.84;97.38;45210.94;5095275;28;20479;-61
2023/12/04 05:26:53;;;;;;;1.30;1.20;;;;;;;-143.84;96.84;45233.78;5111709;28;20836;-61
2023/12/04 05:29:20;;;;;;;0.80;0.70;;;;;;;-143.84;97.48;45226.16;5095843;28;20503;-61
2023/12/04 05:31:49;;;;;;;0.80;0.60;;;;;;;-143.84;96.87;45254.72;5103377;28;20451;-61
2023/12/04 05:34:16;;;;;;;0.80;0.50;;;;;;;-143.84;97.47;45222.34;5103910;28;20557;-62
2023/12/04 05:36:43;;;;;;;0.80;0.60;;;;;;;-143.84;96.90;45231.88;5111507;28;20448;-62
2023/12/04 05:39:10;;;;;;;1.00;0.90;;;;;;;-143.84;96.88;45239.50;5111178;28;20451;-62
2023/12/04 05:41:37;;;;;;;0.80;0.50;;;;;;;-143.84;97.05;45233.78;5111127;28;20444;-62
2023/12/04 05:44:05;;;;;;;0.90;0.80;;;;;;;-143.84;97.33;45235.69;5111405;28;20484;-62
2023/12/04 05:46:32;;;;;;;1.83;0.80;;;;;;;-143.84;96.87;45256.63;5111504;28;21213;-62
2023/12/04 05:49:01;;;;;;;0.90;0.70;;;;;;;-143.84;96.84;45205.22;5109936;28;20536;-62
2023/12/04 05:51:28;;;;;;;0.83;0.60;;;;;;;-143.84;97.30;45239.50;5071165;28;20456;-61
2023/12/04 05:53:55;;;;;;;1.07;0.97;;;;;;;-143.84;97.14;45209.03;5070548;28;20447;-62
2023/12/04 05:56:23;;;;;;;0.80;0.70;;;;;;;-143.84;97.09;45250.91;5069426;28;20445;-62
2023/12/04 05:58:50;;;;;;;1.70;1.60;;;;;;;-143.84;97.28;45212.84;5070314;28;20507;-62
2023/12/04 06:01:17;;;;;;;2.77;2.20;;;;;;;-143.84;97.48;45220.44;5070251;28;20947;-62
2023/12/04 06:03:44;;;;;;;0.80;0.60;;;;;;;-143.84;97.47;45239.50;5070025;28;20881;-62
2023/12/04 06:06:13;;;;;;;1.37;1.27;;;;;;;-143.84;97.35;45247.09;5070012;28;20504;-62
2023/12/04 06:08:40;;;;;;;0.80;0.60;;;;;;;-143.84;97.15;45245.19;5070075;28;20976;-62
2023/12/04 06:11:07;;;;;;;1.00;0.87;;;;;;;-143.84;96.81;45231.88;5069963;28;20935;-62
2023/12/04 06:13:35;;;;;;;0.80;0.60;;;;;;;-143.84;97.15;45258.53;5070120;28;20433;-61
2023/12/04 06:16:03;;;;;;;2.10;1.00;;;;;;;-143.84;97.17;45220.44;5069592;28;21392;-62
2023/12/04 06:18:30;;;;;;;1.17;0.87;;;;;;;-143.84;97.28;45224.25;5070128;28;20944;-62
2023/12/04 06:20:57;;;;;;;1.17;1.07;;;;;;;-143.84;97.24;45212.84;5069880;28;20454;-61
2023/12/04 06:23:26;;;;;;;1.27;1.17;;;;;;;-143.84;96.90;45233.78;5069765;28;20445;-61
2023/12/04 06:25:54;;;;;;;0.80;0.60;;;;;;;-143.84;97.13;45250.91;5070228;28;20496;-63
2023/12/04 06:28:22;;;;;;;0.80;0.60;;;;;;;-143.84;97.52;45207.13;5071155;28;20450;-61
2023/12/04 06:30:49;;;;;;;1.77;0.70;;;;;;;-143.84;97.87;45212.84;5070984;28;20447;-61
2023/12/04 06:33:18;;;;;;;1.23;1.13;;;;;;;-143.84;97.27;45216.63;5070808;28;20444;-62
2023/12/04 06:35:45;;;;;;;1.00;0.70;;;;;;;-143.84;97.97;45214.72;5070817;28;20439;-61
2023/12/04 06:38:16;;;;;;;0.80;0.53;;;;;;;-143.84;97.28;45233.78;5070900;28;20435;-61
2023/12/04 06:40:45;;;;;;;0.80;0.53;;;;;;;-143.84;97.56;45214.72;5070801;28;20538;-62
2023/12/04 06:43:12;;;;;;;0.80;0.60;;;;;;;-143.84;97.00;45209.03;5070886;28;20454;-62
2023/12/04 06:45:40;;;;;;;1.10;1.00;;;;;;;-143.84;97.02;45231.88;5070606;28;21052;-61
2023/12/04 06:48:09;;;;;;;0.80;0.50;;;;;;;-143.84;96.96;45249.00;5070779;28;20443;-62
2023/12/04 06:50:37;;;;;;;0.80;0.60;;;;;;;-143.84;97.33;45245.19;5070355;28;20948;-61
2023/12/04 06:53:04;;;;;;;0.80;0.50;;;;;;;-143.84;96.65;45220.44;5070508;28;20454;-61
2023/12/04 06:55:31;;;;;;;0.80;0.50;;;;;;;-143.84;96.76;45237.59;5070444;28;20437;-61
2023/12/04 06:58:00;;;;;;;0.80;0.50;;;;;;;-143.84;96.57;45222.34;5070496;28;20778;-61
2023/12/04 07:00:27;;;;;;;0.80;0.50;;;;;;;-143.84;96.78;45229.97;5070520;28;20496;-62
2023/12/04 07:02:54;;;;;;;2.10;2.00;;;;;;;-143.84;97.04;45247.09;5070072;28;20444;-61
2023/12/04 07:05:22;;;;;;;0.80;0.50;;;;;;;-143.84;96.29;45245.19;5070089;28;20479;-62
2023/12/04 07:07:49;;;;;;;1.13;0.90;;;;;;;-143.84;96.24;45207.13;5070023;28;20532;-61
2023/12/04 07:10:16;;;;;;;0.87;0.70;;;;;;;-143.84;96.07;45226.16;5070302;28;20446;-61
2023/12/04 07:12:43;;;;;;;0.80;0.70;;;;;;;-143.84;96.19;45250.91;5070347;28;20504;-62
2023/12/04 07:15:12;;;;;;;0.80;0.60;;;;;;;-143.84;95.73;45231.88;5069525;28;20458;-61
2023/12/04 07:17:40;;;;;;;0.80;0.63;;;;;;;-143.84;95.92;45220.44;5069843;28;20444;-61
2023/12/04 07:20:08;;;;;;;1.57;0.87;;;;;;;-143.84;96.13;45218.53;5070051;28;20520;-62
2023/12/04 07:22:35;;;;;;;0.80;0.70;;;;;;;-143.84;95.81;45235.69;5070366;28;21201;-61
2023/12/04 07:25:02;;;;;;;0.80;0.50;;;;;;;-143.84;95.98;45220.44;5069811;28;20482;-61
2023/12/04 07:27:30;;;;;;;0.80;0.70;;;;;;;-143.84;96.16;45237.59;5070055;28;20446;-62
2023/12/04 07:29:57;;;;;;;0.80;0.50;;;;;;;-143.84;96.07;45216.63;5069933;28;20488;-62
2023/12/04 07:32:26;;;;;;;1.63;1.53;;;;;;;-143.84;95.70;45210.94;5070105;28;20839;-61
2023/12/04 07:34:53;;;;;;;1.83;1.30;;;;;;;-143.84;95.47;45226.16;5069831;28;20447;-61
2023/12/04 07:37:20;;;;;;;0.80;0.63;;;;;;;-143.84;95.73;45231.88;5070152;28;20846;-62
2023/12/04 07:39:47;;;;;;;3.00;2.40;;;;;;;-143.84;95.77;45231.88;5069949;28;20935;-61
2023/12/04 07:42:14;;;;;;;3.80;1.70;;;;;;;-143.84;95.22;45231.88;5069182;28;20458;-61
2023/12/04 07:44:42;;;;;;;0.80;0.50;;;;;;;-143.84;95.21;45231.88;5069553;28;20482;-62
2023/12/04 07:47:09;;;;;;;1.10;0.93;;;;;;;-143.84;95.59;45231.88;5069703;28;20447;-62
2023/12/04 07:49:37;;;;;;;1.20;1.10;;;;;;;-143.84;95.49;45243.31;5069743;28;20446;-62
2023/12/04 07:52:05;;;;;;;0.80;0.50;;;;;;;-143.84;95.65;45210.94;5069674;28;20497;-61
2023/12/04 07:54:32;;;;;;;0.80;0.60;;;;;;;-143.84;95.57;45245.19;5069681;28;20447;-61
2023/12/04 07:56:59;;;;;;;0.80;0.50;;;;;;;-143.84;96.21;45237.59;5069483;28;20433;-62
2023/12/04 07:59:26;;;;;;;0.80;0.60;;;;;;;-143.84;95.42;45228.06;5069599;28;20487;-61
2023/12/04 08:01:54;;;;;;;0.80;0.50;;;;;;;-143.84;95.85;45209.03;5069690;28;20439;-62
2023/12/04 08:04:21;;;;;;;0.80;0.50;;;;;;;-143.84;95.28;45220.44;5069546;28;20888;-62
2023/12/04 08:06:50;;;;;;;0.80;0.70;;;;;;;-143.84;95.93;45237.59;5069761;28;20499;-62
2023/12/04 08:09:17;;;;;;;0.80;0.70;;;;;;;-143.84;95.54;45229.97;5069768;28;20873;-61
2023/12/04 08:11:44;;;;;;;0.80;0.60;;;;;;;-143.84;95.98;45214.72;5069411;28;20450;-63
2023/12/04 08:14:11;;;;;;;1.57;1.47;;;;;;;-143.84;95.49;45243.31;5069444;28;20442;-62
2023/12/04 08:16:39;;;;;;;0.80;0.50;;;;;;;-143.84;95.13;45237.59;5069389;28;20533;-62
2023/12/04 08:19:06;;;;;;;1.13;1.03;;;;;;;-143.84;95.45;45224.25;5070175;28;20443;-61
2023/12/04 08:21:33;;;;;;;1.10;1.00;;;;;;;-143.84;95.15;45224.25;5073820;28;20447;-61
2023/12/04 08:24:02;;;;;;;0.90;0.80;;;;;;;-143.84;95.34;45229.97;5073324;28;20863;-62
2023/12/04 08:26:29;;;;;;;0.80;0.53;;;;;;;-143.84;94.98;45237.59;5073314;28;21004;-61
2023/12/04 08:28:56;;;;;;;1.00;0.80;;;;;;;-143.84;95.08;45212.84;5073426;28;20443;-62
2023/12/04 08:31:23;;;;;;;5.83;1.10;;;;;;;-143.84;94.81;45220.44;5073539;28;20469;-61
2023/12/04 08:33:50;;;;;;;0.97;0.87;;;;;;;-143.84;94.75;45205.22;5073081;28;20443;-63
2023/12/04 08:36:18;;;;;;;1.70;1.57;;;;;;;-143.84;94.71;45222.34;5073193;28;20451;-62
2023/12/04 08:38:45;;;;;;;0.80;0.60;;;;;;;-143.84;94.92;45235.69;5073274;28;20426;-62
2023/12/04 08:41:13;;;;;;;0.80;0.60;;;;;;;-143.84;94.92;45231.88;5072930;28;20568;-60
2023/12/04 08:43:40;;;;;;;1.60;1.50;;;;;;;-143.84;94.54;45228.06;5071700;28;20458;-59
2023/12/04 08:46:08;;;;;;;1.70;1.60;;;;;;;-143.84;94.34;45233.78;5072375;28;20489;-59
2023/12/04 08:48:35;;;;;;;0.90;0.70;;;;;;;-143.84;94.24;45239.50;5071512;28;21025;-62
2023/12/04 08:51:02;;;;;;;1.10;0.80;;;;;;;-143.84;94.75;45229.97;5070712;28;20493;-62
2023/12/04 08:53:30;;;;;;;0.80;0.73;;;;;;;-143.84;94.19;45207.13;5070939;28;20828;-62
2023/12/04 08:55:57;;;;;;;0.80;0.67;;;;;;;-143.84;94.75;45247.09;5070942;28;20784;-62
2023/12/04 08:58:26;;;;;;;0.80;0.50;;;;;;;-143.84;94.88;45243.31;5071265;28;20443;-62
2023/12/04 09:00:53;;;;;;;4.00;1.63;;;;;;;-143.84;94.84;45228.06;5070923;28;20933;-62
2023/12/04 09:03:22;;;;;;;2.07;1.10;;;;;;;-143.84;95.06;45231.88;5071172;28;20507;-62
2023/12/04 09:05:50;;;;;;;0.80;0.60;;;;;;;-143.84;94.35;45250.91;5071179;28;20501;-62
2023/12/04 09:08:17;;;;;;;0.80;0.50;;;;;;;-143.84;94.65;45207.13;5071546;28;20457;-62
2023/12/04 09:10:45;;;;;;;0.80;0.50;;;;;;;-143.84;94.81;45235.69;5071741;28;21334;-62
2023/12/04 09:13:12;;;;;;;0.80;0.50;;;;;;;-143.84;94.93;45205.22;5071447;28;20439;-62
2023/12/04 09:15:41;;;;;;;4.40;1.07;;;;;;;-143.84;95.47;45250.91;5071276;28;20494;-62
2023/12/04 09:18:08;;;;;;;3.73;2.70;;;;;;;-143.84;94.82;45216.63;5071048;28;20449;-62
2023/12/04 09:20:35;;;;;;;1.73;1.00;;;;;;;-143.84;94.80;45216.63;5071161;28;20500;-62
2023/12/04 09:23:03;;;;;;;0.80;0.50;;;;;;;-143.84;94.79;45220.44;5071159;28;20444;-62
2023/12/04 09:25:30;;;;;;;0.80;0.50;;;;;;;-143.84;94.56;45239.50;5071069;28;20483;-62
2023/12/04 09:27:57;;;;;;;1.00;0.90;;;;;;;-143.84;93.68;45205.22;5070920;28;20450;-62
2023/12/04 09:30:24;;;;;;;0.80;0.50;;;;;;;-143.84;93.99;45235.69;5070174;28;20444;-62
2023/12/04 09:32:53;;;;;;;1.20;1.10;;;;;;;-143.84;94.05;45209.03;5070602;28;20790;-62
2023/12/04 09:35:20;;;;;;;2.60;1.73;;;;;;;-143.84;93.49;45228.06;5070797;28;20450;-62
2023/12/04 09:37:50;;;;;;;0.80;0.70;;;;;;;-143.84;93.25;45216.63;5071264;28;20787;-62
2023/12/04 09:40:17;;;;;;;0.90;0.60;;;;;;;-143.84;93.60;45218.53;5070920;28;20452;-62
2023/12/04 09:42:44;;;;;;;0.83;0.67;;;;;;;-143.84;93.07;45220.44;5070745;28;20861;-62
2023/12/04 09:45:13;;;;;;;0.90;0.70;;;;;;;-143.84;92.91;45252.81;5070626;28;20478;-62
2023/12/04 09:47:40;;;;;;;1.00;0.90;;;;;;;-143.84;92.98;45235.69;5070702;28;20526;-62
2023/12/04 09:50:10;;;;;;;1.33;1.23;;;;;;;-143.84;92.66;45233.78;5070522;28;20445;-62
2023/12/04 09:52:38;;;;;;;0.80;0.50;;;;;;;-143.84;92.69;45222.34;5070976;28;20435;-62
2023/12/04 09:55:06;;;;;;;0.80;0.60;;;;;;;-143.84;92.99;45235.69;5070571;28;20431;-62
2023/12/04 09:57:34;;;;;;;0.80;0.50;;;;;;;-143.84;93.09;45212.84;5070598;28;20435;-62
2023/12/04 10:00:03;;;;;;;0.80;0.50;;;;;;;-143.84;93.08;45233.78;5070525;28;20451;-62
2023/12/04 10:02:31;;;;;;;4.40;1.60;;;;;;;-143.84;93.23;45226.16;5070278;28;20454;-62
2023/12/04 10:04:58;;;;;;;1.40;1.30;;;;;;;-143.84;93.09;45220.44;5070432;28;20447;-62
2023/12/04 10:07:26;;;;;;;1.73;1.20;;;;;;;-143.84;92.73;45228.06;5070177;28;20473;-62
2023/12/04 10:09:53;;;;;;;0.80;0.50;;;;;;;-143.84;93.32;45231.88;5070684;28;20480;-62
2023/12/04 10:12:21;;;;;;;0.90;0.80;;;;;;;-143.84;93.37;45224.25;5070301;28;20496;-62
2023/12/04 10:15:04;;;;;;;1.30;0.97;;;;;;;-143.84;92.88;45231.88;5070360;28;20689;-62
2023/12/04 10:17:35;;;;;;;0.80;0.50;;;;;;;-143.84;93.05;45233.78;5069997;28;20965;-62
2023/12/04 10:20:11;;;;;;;1.10;1.00;;;;;;;-143.84;92.82;45256.63;5070388;28;20482;-62
2023/12/04 10:22:41;;;;;;;1.20;1.10;;;;;;;-143.84;93.54;45203.31;5069795;28;20454;-62
2023/12/04 10:25:17;;;;;;;1.00;0.87;;;;;;;-143.84;93.13;45228.06;5069891;28;20535;-62
2023/12/04 10:27:45;;;;;;;1.00;0.80;;;;;;;-143.84;92.89;45231.88;5070271;28;20553;-62
2023/12/04 10:30:23;;;;;;;0.90;0.80;;;;;;;-143.84;93.00;45212.84;5070030;28;20440;-62
2023/12/04 10:32:50;;;;;;;0.80;0.60;;;;;;;-143.84;93.07;45235.69;5070102;28;20447;-62
2023/12/04 10:35:17;;;;;;;0.80;0.50;;;;;;;-143.84;92.47;45247.09;5069838;28;20450;-62
2023/12/04 10:37:46;;;;;;;0.80;0.60;;;;;;;-143.84;92.47;45235.69;5069610;28;20488;-62
2023/12/04 10:40:24;;;;;;;1.00;0.90;;;;;;;-143.84;92.31;45231.88;5069787;28;20435;-62
2023/12/04 10:42:51;;;;;;;0.83;0.70;;;;;;;-143.84;92.13;45252.81;5069171;28;20929;-62
2023/12/04 10:45:22;;;;;;;0.80;0.50;;;;;;;-143.84;92.38;45220.44;5069584;28;20500;-62
2023/12/04 10:47:52;;;;;;;0.80;0.50;;;;;;;-143.84;92.41;45247.09;5069577;28;20443;-62
2023/12/04 10:50:19;;;;;;;4.10;0.97;;;;;;;-143.84;92.77;45254.72;5069506;28;20474;-62
2023/12/04 10:52:49;;;;;;;0.80;0.70;;;;;;;-143.84;92.39;45243.31;5069154;28;20446;-62
2023/12/04 10:55:16;;;;;;;0.90;0.80;;;;;;;-143.84;92.97;45233.78;5069451;28;20452;-62
2023/12/04 10:57:46;;;;;;;1.37;1.27;;;;;;;-143.84;92.37;45226.16;5069438;28;21030;-62
2023/12/04 11:00:16;;;;;;;0.80;0.60;;;;;;;-143.84;92.23;45216.63;5069632;28;20480;-62
2023/12/04 11:02:47;;;;;;;0.80;0.60;;;;;;;-143.84;92.26;45228.06;5069545;28;20466;-62
2023/12/04 11:05:17;;;;;;;1.03;0.93;;;;;;;-143.84;92.15;45207.13;5069060;28;20466;-62
2023/12/04 11:07:52;;;;;;;0.80;0.60;;;;;;;-143.84;92.33;45233.78;5069454;28;20820;-62
2023/12/04 11:10:23;;;;;;;0.80;0.73;;;;;;;-143.84;92.52;45231.88;5069145;28;21022;-62
2023/12/04 11:12:56;;;;;;;2.90;1.10;;;;;;;-143.84;92.09;45224.25;5069064;28;20905;-62
2023/12/04 11:15:26;;;;;;;2.07;1.30;;;;;;;-143.84;92.64;45201.41;5068726;28;20936;-62
2023/12/04 11:17:59;;;;;;;0.97;0.90;;;;;;;-143.84;92.33;45193.78;5069059;28;20534;-62
2023/12/04 11:20:31;;;;;;;2.27;2.00;;;;;;;-143.84;92.82;45231.88;5069026;28;20533;-62